Time;durP1;ratioP1;P1;durP2;ratioP2;P2;SDS_P1;SDS_P2;PMS_P1;PMS_P2;Temp;Humidity;BMP_temperature;BMP_pressure;BME280_temperature;BME280_humidity;BME280_pressure;Samples;Min_cycle;Max_cycle;Signal;HPM_P1;HPM_P2
2023/12/19 00:00:38;;;;;;;81.85;35.45;;;;;;;7.46;100.00;102115.22;4848569;29;20052;-77
2023/12/19 00:03:05;;;;;;;87.35;35.15;;;;;;;7.47;100.00;102117.03;4870205;29;20049;-78
2023/12/19 00:05:34;;;;;;;71.53;31.92;;;;;;;7.46;100.00;102107.34;4845802;29;20052;-78
2023/12/19 00:08:02;;;;;;;66.80;31.58;;;;;;;7.45;100.00;102098.59;4848398;29;20049;-77
2023/12/19 00:10:30;;;;;;;70.45;31.50;;;;;;;7.45;100.00;102114.34;4822420;29;20048;-78
2023/12/19 00:12:59;;;;;;;69.65;30.05;;;;;;;7.46;100.00;102108.22;4856433;29;20061;-79
2023/12/19 00:15:26;;;;;;;65.57;30.42;;;;;;;7.47;100.00;102098.66;4859772;29;20075;-77
2023/12/19 00:17:54;;;;;;;64.85;31.20;;;;;;;7.47;100.00;102085.53;4846730;29;20708;-79
2023/12/19 00:20:21;;;;;;;73.43;32.13;;;;;;;7.46;100.00;102078.50;4856928;29;20049;-78
2023/12/19 00:22:49;;;;;;;62.47;27.58;;;;;;;7.47;100.00;102081.19;4870368;29;20573;-78
2023/12/19 00:25:16;;;;;;;58.88;28.52;;;;;;;7.45;100.00;102075.00;4874012;29;20078;-78
2023/12/19 00:27:44;;;;;;;62.78;29.58;;;;;;;7.46;100.00;102089.00;4809509;29;20422;-78
2023/12/19 00:30:12;;;;;;;61.33;28.90;;;;;;;7.44;100.00;102083.69;4842821;29;20056;-80
2023/12/19 00:32:39;;;;;;;52.10;26.67;;;;;;;7.46;100.00;102086.38;4842118;29;20068;-79
2023/12/19 00:35:08;;;;;;;55.83;27.30;;;;;;;7.47;100.00;102093.41;4856404;29;20053;-78
2023/12/19 00:37:36;;;;;;;60.55;28.77;;;;;;;7.47;100.00;102081.19;4870962;29;20057;-78
2023/12/19 00:40:05;;;;;;;55.70;26.73;;;;;;;7.49;100.00;102096.97;4856580;29;20049;-77
2023/12/19 00:42:33;;;;;;;51.03;23.93;;;;;;;7.49;100.00;102079.50;4810285;29;20487;-79
2023/12/19 00:45:02;;;;;;;59.80;27.13;;;;;;;7.51;100.00;102076.94;4848546;29;20061;-79
2023/12/19 00:47:32;;;;;;;57.03;26.15;;;;;;;7.51;100.00;102063.81;4833536;29;20053;-79
2023/12/19 00:49:59;;;;;;;58.58;27.33;;;;;;;7.52;100.00;102065.59;4841570;29;20052;-79
2023/12/19 00:52:27;;;;;;;55.05;25.52;;;;;;;7.54;100.00;102066.53;4855521;29;20064;-79
2023/12/19 00:54:55;;;;;;;55.53;25.77;;;;;;;7.54;100.00;102061.28;4885472;29;20406;-78
2023/12/19 00:57:22;;;;;;;47.13;25.15;;;;;;;7.54;100.00;102049.09;4823858;29;20060;-79
2023/12/19 00:59:50;;;;;;;52.83;26.50;;;;;;;7.55;100.00;102048.25;4843007;29;20800;-79
2023/12/19 01:02:17;;;;;;;50.92;26.45;;;;;;;7.56;100.00;102042.16;4853764;29;20056;-79
2023/12/19 01:04:47;;;;;;;55.25;26.17;;;;;;;7.56;100.00;102041.25;4853595;29;20064;-78
2023/12/19 01:07:15;;;;;;;50.92;25.98;;;;;;;7.57;100.00;102035.19;4859712;29;20145;-78
2023/12/19 01:09:43;;;;;;;54.45;25.65;;;;;;;7.59;100.00;102028.25;4858100;29;20049;-78
2023/12/19 01:12:10;;;;;;;47.47;23.55;;;;;;;7.60;100.00;102037.91;4860840;29;20053;-78
2023/12/19 01:14:38;;;;;;;43.42;23.60;;;;;;;7.61;100.00;102032.69;4806415;29;20057;-78
2023/12/19 01:17:05;;;;;;;54.05;24.35;;;;;;;7.62;100.00;102038.88;4856358;29;20087;-78
2023/12/19 01:19:33;;;;;;;47.00;24.17;;;;;;;7.63;100.00;102037.13;4865303;29;20041;-78
2023/12/19 01:22:01;;;;;;;52.95;25.38;;;;;;;7.63;100.00;102038.00;4863669;29;20885;-78
2023/12/19 01:24:29;;;;;;;46.25;23.55;;;;;;;7.66;100.00;102039.88;4847542;29;20045;-78
2023/12/19 01:26:57;;;;;;;49.30;25.05;;;;;;;7.66;100.00;102046.00;4875290;29;20052;-78
2023/12/19 01:29:24;;;;;;;45.42;23.65;;;;;;;7.67;100.00;102039.00;4832178;29;20505;-78
2023/12/19 01:31:53;;;;;;;55.35;24.83;;;;;;;7.67;100.00;102039.88;4841907;29;20532;-79
2023/12/19 01:34:20;;;;;;;57.60;25.50;;;;;;;7.66;100.00;102035.50;4864157;29;20053;-79
2023/12/19 01:36:49;;;;;;;50.42;24.08;;;;;;;7.66;100.00;102025.00;4871604;29;20691;-78
2023/12/19 01:39:24;;;;;;;48.33;23.63;;;;;;;7.67;100.00;102037.25;4859699;29;20068;-78
2023/12/19 01:41:52;;;;;;;38.00;21.35;;;;;;;7.66;100.00;102027.63;4858469;29;20048;-78
2023/12/19 01:44:19;;;;;;;51.30;22.23;;;;;;;7.68;100.00;102030.31;4859428;29;20049;-78
2023/12/19 01:46:47;;;;;;;42.03;21.92;;;;;;;7.66;100.00;102017.13;4824749;29;20063;-79
2023/12/19 01:49:15;;;;;;;43.10;22.02;;;;;;;7.66;100.00;102027.63;4852035;29;20064;-78
2023/12/19 01:51:42;;;;;;;45.83;22.88;;;;;;;7.67;100.00;102025.88;4859928;29;20049;-78
2023/12/19 01:54:10;;;;;;;43.80;21.20;;;;;;;7.66;100.00;102019.75;4848344;29;20061;-78
2023/12/19 01:56:39;;;;;;;45.72;22.58;;;;;;;7.67;100.00;102012.78;4876242;29;20049;-78
2023/12/19 01:59:08;;;;;;;38.70;21.13;;;;;;;7.68;100.00;102019.81;4855768;29;20781;-78
2023/12/19 02:01:35;;;;;;;43.60;21.45;;;;;;;7.68;100.00;102015.44;4814756;29;20052;-79
2023/12/19 02:04:03;;;;;;;42.85;21.75;;;;;;;7.68;100.00;102015.44;4836982;29;20982;-77
2023/12/19 02:06:34;;;;;;;38.60;21.52;;;;;;;7.70;100.00;102023.38;4846904;29;20414;-80
2023/12/19 02:09:03;;;;;;;38.17;21.13;;;;;;;7.70;100.00;102021.63;4844859;29;20037;-79
2023/12/19 02:11:31;;;;;;;43.47;21.30;;;;;;;7.71;100.00;102020.81;4857134;29;20427;-79
2023/12/19 02:13:58;;;;;;;35.55;19.38;;;;;;;7.72;100.00;102021.69;4854910;29;20521;-78
2023/12/19 02:16:26;;;;;;;36.17;20.25;;;;;;;7.71;100.00;102020.81;4857921;29;20048;-79
2023/12/19 02:19:03;;;;;;;36.35;19.20;;;;;;;7.71;100.00;102012.94;4807239;29;20057;-79
2023/12/19 02:21:31;;;;;;;38.90;20.20;;;;;;;7.71;100.00;102012.94;4865782;29;20086;-79
2023/12/19 02:23:59;;;;;;;44.92;21.25;;;;;;;7.71;100.00;102010.31;4845410;29;20711;-78
2023/12/19 02:26:28;;;;;;;37.90;20.38;;;;;;;7.71;100.00;102001.53;4854485;29;20530;-78
2023/12/19 02:28:56;;;;;;;31.38;18.67;;;;;;;7.70;100.00;101995.41;4854443;29;20049;-78
2023/12/19 02:31:24;;;;;;;37.72;21.48;;;;;;;7.68;100.00;101994.47;4873302;29;20049;-79
2023/12/19 02:33:51;;;;;;;34.05;18.25;;;;;;;7.67;100.00;101982.16;4816266;29;20045;-77
2023/12/19 02:36:19;;;;;;;35.38;19.65;;;;;;;7.67;100.00;101976.91;4845921;29;20067;-79
2023/12/19 02:38:47;;;;;;;37.67;19.50;;;;;;;7.64;100.00;101971.59;4857782;29;20486;-78
2023/12/19 02:41:14;;;;;;;38.25;20.63;;;;;;;7.65;100.00;101964.59;4850155;29;20053;-79
2023/12/19 02:43:42;;;;;;;39.38;21.23;;;;;;;7.65;100.00;101968.13;4856997;29;20049;-79
2023/12/19 02:46:23;;;;;;;40.92;20.95;;;;;;;7.64;100.00;101976.84;4860454;29;20499;-79
2023/12/19 02:48:52;;;;;;;41.38;20.58;;;;;;;7.64;100.00;101970.69;4831330;29;20495;-79
2023/12/19 02:51:20;;;;;;;39.10;19.98;;;;;;;7.63;100.00;101964.53;4866146;29;20045;-80
2023/12/19 02:53:48;;;;;;;36.60;18.75;;;;;;;7.63;100.00;101961.94;4846357;29;20526;-80
2023/12/19 02:56:15;;;;;;;37.50;19.67;;;;;;;7.63;100.00;101969.78;4845088;29;20061;-79
2023/12/19 02:58:43;;;;;;;39.22;19.75;;;;;;;7.63;100.00;101956.69;4855861;29;20060;-80
2023/12/19 03:01:11;;;;;;;34.15;18.30;;;;;;;7.63;100.00;101954.06;4871468;29;20497;-79
2023/12/19 03:03:43;;;;;;;36.42;19.27;;;;;;;7.64;100.00;101944.44;4857745;29;20061;-80
2023/12/19 03:06:14;;;;;;;38.42;18.83;;;;;;;7.62;100.00;101936.56;4823058;29;20049;-79
2023/12/19 03:08:46;;;;;;;34.40;18.20;;;;;;;7.61;100.00;101934.75;4863181;29;20049;-79
2023/12/19 03:11:14;;;;;;;41.22;20.27;;;;;;;7.60;100.00;101923.38;4844533;29;20057;-78
2023/12/19 03:13:42;;;;;;;41.00;19.58;;;;;;;7.59;100.00;101911.09;4856529;29;20048;-78
2023/12/19 03:16:09;;;;;;;39.53;20.58;;;;;;;7.58;100.00;101917.19;4871880;29;20085;-78
2023/12/19 03:18:37;;;;;;;38.50;20.27;;;;;;;7.57;100.00;101917.13;4876624;29;20075;-80
2023/12/19 03:21:06;;;;;;;46.55;21.40;;;;;;;7.57;100.00;101918.03;4814701;29;20065;-81
2023/12/19 03:23:33;;;;;;;38.42;20.88;;;;;;;7.56;100.00;101916.25;4859709;29;20045;-80
2023/12/19 03:26:01;;;;;;;40.70;21.58;;;;;;;7.56;100.00;101920.59;4844044;29;20068;-79
2023/12/19 03:28:29;;;;;;;43.22;21.15;;;;;;;7.55;100.00;101913.56;4844426;29;20116;-79
2023/12/19 03:30:57;;;;;;;39.65;21.20;;;;;;;7.54;100.00;101911.78;4842298;29;20037;-80
2023/12/19 03:33:24;;;;;;;40.47;20.60;;;;;;;7.52;100.00;101910.84;4874145;29;20056;-79
2023/12/19 03:35:51;;;;;;;40.95;20.70;;;;;;;7.52;100.00;101902.97;4831348;29;20053;-79
2023/12/19 03:38:19;;;;;;;40.58;21.20;;;;;;;7.50;100.00;101895.06;4856088;29;20053;-78
2023/12/19 03:40:47;;;;;;;40.88;20.80;;;;;;;7.50;100.00;101883.69;4841080;29;20041;-79
2023/12/19 03:43:14;;;;;;;36.85;20.58;;;;;;;7.48;100.00;101896.72;4850270;29;20049;-81
2023/12/19 03:45:41;;;;;;;47.28;22.30;;;;;;;7.48;100.00;101882.75;4872082;29;20486;-78
2023/12/19 03:48:09;;;;;;;32.78;18.55;;;;;;;7.47;100.00;101883.59;4853462;29;20068;-79
2023/12/19 03:50:36;;;;;;;40.85;20.23;;;;;;;7.47;100.00;101878.34;4814770;29;20083;-78
2023/12/19 03:53:04;;;;;;;37.25;19.42;;;;;;;7.45;100.00;101859.03;4873185;29;20126;-79
2023/12/19 03:55:31;;;;;;;34.42;19.00;;;;;;;7.43;100.00;101859.00;4844736;29;20057;-79
2023/12/19 03:57:58;;;;;;;36.78;18.55;;;;;;;7.42;100.00;101863.31;4842327;29;20054;-79
2023/12/19 04:00:26;;;;;;;36.55;18.52;;;;;;;7.41;100.00;101864.19;4868924;29;20040;-80
2023/12/19 04:02:53;;;;;;;33.25;17.20;;;;;;;7.39;100.00;101859.72;4856781;29;20052;-80
2023/12/19 04:05:21;;;;;;;32.55;17.45;;;;;;;7.39;100.00;101857.09;4800599;29;21703;-79
2023/12/19 04:07:48;;;;;;;28.30;16.00;;;;;;;7.38;100.00;101861.44;4856822;29;20163;-78
2023/12/19 04:10:16;;;;;;;27.42;15.18;;;;;;;7.38;100.00;101861.44;4859399;29;20045;-78
2023/12/19 04:12:44;;;;;;;28.27;15.73;;;;;;;7.36;100.00;101862.25;4847826;29;20072;-79
2023/12/19 04:15:12;;;;;;;25.02;15.13;;;;;;;7.35;100.00;101860.47;4870590;29;20045;-79
2023/12/19 04:17:39;;;;;;;25.92;15.13;;;;;;;7.35;100.00;101852.59;4870889;29;20045;-79
2023/12/19 04:20:07;;;;;;;27.73;15.93;;;;;;;7.33;100.00;101852.53;4856999;29;20053;-78
2023/12/19 04:22:34;;;;;;;27.30;16.60;;;;;;;7.34;100.00;101842.97;4849851;29;20049;-80
2023/12/19 04:25:02;;;;;;;26.95;14.93;;;;;;;7.34;100.00;101853.47;4854918;29;20060;-78
2023/12/19 04:27:29;;;;;;;24.77;14.23;;;;;;;7.33;100.00;101852.53;4829671;29;20056;-79
2023/12/19 04:29:57;;;;;;;22.77;13.60;;;;;;;7.32;100.00;101845.53;4848071;29;20068;-79
2023/12/19 04:32:25;;;;;;;23.42;14.25;;;;;;;7.30;100.00;101844.59;4869392;29;20752;-80
2023/12/19 04:34:53;;;;;;;23.65;12.32;;;;;;;7.29;100.00;101842.78;4857226;29;20483;-80
2023/12/19 04:37:21;;;;;;;22.15;12.85;;;;;;;7.28;100.00;101846.28;4815854;29;20052;-80
2023/12/19 04:39:48;;;;;;;23.08;12.85;;;;;;;7.27;100.00;101843.59;4857368;29;20595;-79
2023/12/19 04:42:18;;;;;;;21.33;12.55;;;;;;;7.26;100.00;101841.81;4862818;29;20163;-79
2023/12/19 04:44:47;;;;;;;23.45;12.02;;;;;;;7.24;100.00;101833.91;4850432;29;20056;-79
2023/12/19 04:47:15;;;;;;;17.58;11.27;;;;;;;7.24;100.00;101833.91;4843487;29;20511;-79
2023/12/19 04:49:43;;;;;;;17.65;11.98;;;;;;;7.25;100.00;101819.06;4874869;29;20061;-79
2023/12/19 04:52:11;;;;;;;19.83;9.98;;;;;;;7.23;100.00;101822.50;4831620;29;20045;-79
2023/12/19 04:54:38;;;;;;;18.10;10.73;;;;;;;7.25;100.00;101829.56;4859463;29;20064;-79
2023/12/19 04:57:06;;;;;;;16.52;10.60;;;;;;;7.22;100.00;101820.75;4849952;29;20064;-79
2023/12/19 04:59:34;;;;;;;21.52;10.05;;;;;;;7.22;100.00;101809.34;4874766;29;20045;-81
2023/12/19 05:02:04;;;;;;;14.75;9.93;;;;;;;7.21;100.00;101812.84;4829157;29;20060;-80
2023/12/19 05:04:32;;;;;;;16.27;9.85;;;;;;;7.19;100.00;101814.50;4860348;29;20080;-81
2023/12/19 05:06:59;;;;;;;15.40;9.82;;;;;;;7.17;100.00;101821.44;4812115;29;20061;-78
2023/12/19 05:09:26;;;;;;;14.52;9.65;;;;;;;7.17;100.00;101806.59;4840632;29;20057;-80
2023/12/19 05:11:54;;;;;;;14.68;9.13;;;;;;;7.16;100.00;101794.31;4840324;29;20049;-80
2023/12/19 05:14:21;;;;;;;12.35;8.55;;;;;;;7.16;100.00;101794.31;4857296;29;20687;-79
2023/12/19 05:16:48;;;;;;;11.57;8.52;;;;;;;7.15;100.00;101792.56;4850178;29;20049;-79
2023/12/19 05:19:16;;;;;;;14.52;8.82;;;;;;;7.16;100.00;101788.19;4862053;29;20045;-81
2023/12/19 05:21:44;;;;;;;15.68;10.18;;;;;;;7.17;100.00;101787.38;4838985;29;20057;-80
2023/12/19 05:24:12;;;;;;;12.45;8.25;;;;;;;7.15;100.00;101786.44;4838487;29;20045;-79
2023/12/19 05:26:39;;;;;;;15.70;9.98;;;;;;;7.15;100.00;101789.06;4865584;29;20422;-79
2023/12/19 05:29:06;;;;;;;15.32;9.02;;;;;;;7.15;100.00;101791.66;4843014;29;20056;-78
2023/12/19 05:31:34;;;;;;;17.08;9.90;;;;;;;7.15;100.00;101787.31;4847073;29;20052;-80
2023/12/19 05:34:02;;;;;;;12.85;8.65;;;;;;;7.15;100.00;101787.31;4855976;29;20056;-79
2023/12/19 05:36:33;;;;;;;13.05;9.02;;;;;;;7.16;100.00;101793.44;4869504;29;20049;-80
2023/12/19 05:39:07;;;;;;;14.57;8.50;;;;;;;7.15;100.00;101797.78;4801752;29;20061;-80
2023/12/19 05:41:35;;;;;;;15.93;8.65;;;;;;;7.16;100.00;101801.28;4858784;29;20041;-79
2023/12/19 05:44:02;;;;;;;11.30;8.40;;;;;;;7.16;100.00;101798.69;4854187;29;20048;-78
2023/12/19 05:46:31;;;;;;;11.75;8.35;;;;;;;7.17;100.00;101800.47;4862498;29;20048;-78
2023/12/19 05:48:59;;;;;;;12.27;8.00;;;;;;;7.16;100.00;101801.28;4844741;29;20061;-78
2023/12/19 05:51:26;;;;;;;12.15;7.97;;;;;;;7.18;100.00;101791.75;4873230;29;20041;-78
2023/12/19 05:53:56;;;;;;;12.27;7.82;;;;;;;7.17;100.00;101795.22;4830605;29;20053;-78
2023/12/19 05:56:24;;;;;;;11.93;7.85;;;;;;;7.17;100.00;101790.88;4819130;29;20065;-78
2023/12/19 05:58:52;;;;;;;10.77;8.25;;;;;;;7.16;100.00;101788.19;4836628;29;20061;-77
2023/12/19 06:01:19;;;;;;;11.70;7.85;;;;;;;7.16;100.00;101777.69;4839514;29;20058;-78
2023/12/19 06:03:48;;;;;;;11.60;7.20;;;;;;;7.15;100.00;101778.56;4813003;29;20061;-78
2023/12/19 06:06:15;;;;;;;9.15;6.82;;;;;;;7.14;100.00;101775.03;4854083;29;20045;-78
2023/12/19 06:08:43;;;;;;;12.98;8.00;;;;;;;7.15;100.00;101775.94;4833589;29;20057;-78
2023/12/19 06:11:11;;;;;;;12.88;8.25;;;;;;;7.15;100.00;101761.09;4791224;29;20065;-77
2023/12/19 06:13:39;;;;;;;9.73;6.38;;;;;;;7.14;100.00;101758.41;4812129;29;20058;-78
2023/12/19 06:16:06;;;;;;;10.52;7.15;;;;;;;7.14;100.00;101751.44;4809337;29;20072;-79
2023/12/19 06:18:34;;;;;;;8.80;6.68;;;;;;;7.14;100.00;101746.19;4829011;29;20054;-79
2023/12/19 06:21:02;;;;;;;9.88;6.65;;;;;;;7.15;100.00;101741.88;4831196;29;20057;-79
2023/12/19 06:23:29;;;;;;;10.80;6.63;;;;;;;7.15;100.00;101739.25;4837158;29;20785;-79
2023/12/19 06:25:57;;;;;;;8.70;6.15;;;;;;;7.15;100.00;101732.25;4796106;29;20516;-79
2023/12/19 06:28:24;;;;;;;8.02;5.88;;;;;;;7.16;100.00;101727.91;4823138;29;20415;-80
2023/12/19 06:30:52;;;;;;;10.07;6.68;;;;;;;7.16;100.00;101730.53;4820051;29;20053;-79
2023/12/19 06:33:19;;;;;;;9.10;6.03;;;;;;;7.17;100.00;101737.56;4816980;29;20049;-82
2023/12/19 06:35:51;;;;;;;10.50;6.63;;;;;;;7.17;100.00;101734.94;4834976;29;20398;-79
2023/12/19 06:38:19;;;;;;;11.10;6.30;;;;;;;7.18;100.00;101718.34;4837581;29;20057;-78
2023/12/19 06:40:46;;;;;;;9.13;6.13;;;;;;;7.17;100.00;101712.22;4799005;29;20066;-78
2023/12/19 06:43:14;;;;;;;9.68;6.47;;;;;;;7.17;100.00;101716.59;4816341;29;20049;-79
2023/12/19 06:45:41;;;;;;;8.30;6.30;;;;;;;7.18;100.00;101713.09;4819586;29;20053;-79
2023/12/19 06:48:09;;;;;;;9.32;6.75;;;;;;;7.18;100.00;101718.34;4826219;29;20045;-79
2023/12/19 06:50:39;;;;;;;9.90;6.30;;;;;;;7.18;100.00;101708.78;4821424;29;20057;-79
2023/12/19 06:53:06;;;;;;;8.85;6.28;;;;;;;7.18;100.00;101707.88;4835117;29;20057;-78
2023/12/19 06:55:34;;;;;;;9.07;6.70;;;;;;;7.19;100.00;101714.91;4798418;29;22388;-79
2023/12/19 06:58:04;;;;;;;9.93;6.75;;;;;;;7.19;100.00;101701.78;4841304;29;20064;-79
2023/12/19 07:00:32;;;;;;;11.60;6.65;;;;;;;7.19;100.00;101699.19;4861553;29;20049;-79
2023/12/19 07:02:59;;;;;;;12.82;7.50;;;;;;;7.19;100.00;101696.56;4862502;29;20634;-79
2023/12/19 07:05:27;;;;;;;10.90;7.07;;;;;;;7.19;100.00;101689.56;4850449;29;20050;-78
2023/12/19 07:07:55;;;;;;;10.73;6.63;;;;;;;7.20;100.00;101690.44;4868246;29;20514;-79
2023/12/19 07:10:23;;;;;;;13.23;7.50;;;;;;;7.20;100.00;101695.69;4794847;29;20960;-78
2023/12/19 07:12:50;;;;;;;11.85;7.50;;;;;;;7.19;100.00;101684.31;4837957;29;20060;-78
2023/12/19 07:15:17;;;;;;;12.32;7.35;;;;;;;7.20;100.00;101685.22;4819100;29;20049;-78
2023/12/19 07:17:46;;;;;;;11.23;7.32;;;;;;;7.22;100.00;101683.50;4829453;29;20061;-79
2023/12/19 07:20:13;;;;;;;10.90;7.60;;;;;;;7.23;100.00;101682.69;4851058;29;20392;-78
2023/12/19 07:22:41;;;;;;;12.98;7.75;;;;;;;7.24;100.00;101676.63;4853568;29;20045;-79
2023/12/19 07:25:10;;;;;;;11.93;7.45;;;;;;;7.24;100.00;101676.63;4820125;29;20108;-78
2023/12/19 07:27:39;;;;;;;14.63;8.23;;;;;;;7.25;100.00;101673.13;4849784;29;20400;-79
2023/12/19 07:30:11;;;;;;;11.57;7.25;;;;;;;7.25;100.00;101678.38;4857420;29;20079;-78
2023/12/19 07:32:39;;;;;;;14.25;7.75;;;;;;;7.26;100.00;101668.78;4849902;29;20049;-80
2023/12/19 07:35:07;;;;;;;11.45;7.50;;;;;;;7.25;100.00;101675.75;4840932;29;20049;-78
2023/12/19 07:37:36;;;;;;;14.77;8.30;;;;;;;7.25;100.00;101675.75;4853972;29;20064;-79
2023/12/19 07:40:05;;;;;;;11.63;7.43;;;;;;;7.25;100.00;101675.75;4868413;29;20076;-78
2023/12/19 07:42:33;;;;;;;12.40;7.03;;;;;;;7.25;100.00;101681.00;4826162;29;20726;-79
2023/12/19 07:45:02;;;;;;;10.88;7.32;;;;;;;7.25;100.00;101678.38;4868586;29;20631;-77
2023/12/19 07:47:30;;;;;;;12.20;7.88;;;;;;;7.26;100.00;101674.94;4865685;29;20052;-79
2023/12/19 07:49:57;;;;;;;13.43;7.82;;;;;;;7.26;100.00;101674.94;4842285;29;20065;-79
2023/12/19 07:52:28;;;;;;;12.60;8.00;;;;;;;7.28;100.00;101665.38;4852642;29;20823;-78
2023/12/19 07:54:55;;;;;;;13.65;7.43;;;;;;;7.28;100.00;101678.47;4853361;29;20515;-81
2023/12/19 07:57:23;;;;;;;10.75;7.85;;;;;;;7.29;100.00;101675.00;4824878;29;20083;-79
2023/12/19 07:59:50;;;;;;;15.43;7.72;;;;;;;7.30;100.00;101673.28;4871734;29;20515;-79
2023/12/19 08:02:18;;;;;;;9.95;6.55;;;;;;;7.29;100.00;101672.38;4841887;29;20057;-79
2023/12/19 08:04:46;;;;;;;9.35;6.70;;;;;;;7.31;100.00;101669.81;4855343;29;20052;-79
2023/12/19 08:07:14;;;;;;;10.93;6.95;;;;;;;7.32;100.00;101674.22;4853418;29;20762;-80
2023/12/19 08:09:41;;;;;;;8.52;6.15;;;;;;;7.33;100.00;101670.75;4840358;29;20052;-81
2023/12/19 08:12:09;;;;;;;10.73;5.72;;;;;;;7.35;100.00;101672.59;4851898;29;20056;-80
2023/12/19 08:14:37;;;;;;;8.52;6.57;;;;;;;7.36;100.00;101669.09;4796936;29;20491;-80
2023/12/19 08:17:04;;;;;;;9.45;5.88;;;;;;;7.36;100.00;101671.72;4858956;29;20064;-79
2023/12/19 08:19:31;;;;;;;7.70;5.95;;;;;;;7.38;100.00;101666.53;4856806;29;20056;-79
2023/12/19 08:21:59;;;;;;;9.68;5.53;;;;;;;7.39;100.00;101677.06;4833864;29;20049;-81
2023/12/19 08:24:26;;;;;;;8.38;5.40;;;;;;;7.40;100.00;101673.59;4824181;29;20076;-81
2023/12/19 08:26:54;;;;;;;6.60;5.18;;;;;;;7.40;100.00;101670.97;4853903;29;20057;-80
2023/12/19 08:29:21;;;;;;;6.40;5.22;;;;;;;7.42;100.00;101669.28;4810962;29;22297;-78
2023/12/19 08:31:49;;;;;;;7.25;5.60;;;;;;;7.41;100.00;101656.13;4843368;29;20056;-79
2023/12/19 08:34:18;;;;;;;6.75;5.28;;;;;;;7.44;100.00;101668.44;4869657;29;20418;-79
2023/12/19 08:36:45;;;;;;;7.40;5.40;;;;;;;7.44;100.00;101666.69;4855341;29;20045;-78
2023/12/19 08:39:13;;;;;;;5.88;5.05;;;;;;;7.43;100.00;101675.44;4867231;29;20072;-80
2023/12/19 08:41:45;;;;;;;6.90;5.45;;;;;;;7.44;100.00;101669.31;4841648;29;20056;-80
2023/12/19 08:44:14;;;;;;;6.68;5.63;;;;;;;7.45;100.00;101663.25;4879926;29;20052;-79
2023/12/19 08:46:41;;;;;;;7.55;5.05;;;;;;;7.46;100.00;101666.75;4811429;29;20075;-79
2023/12/19 08:49:09;;;;;;;7.55;6.10;;;;;;;7.47;100.00;101666.81;4863148;29;20060;-80
2023/12/19 08:51:36;;;;;;;8.52;6.40;;;;;;;7.49;100.00;101651.13;4845894;29;20064;-80
2023/12/19 08:54:06;;;;;;;8.93;6.50;;;;;;;7.49;100.00;101658.97;4876729;29;20051;-79
2023/12/19 08:56:33;;;;;;;10.77;6.65;;;;;;;7.50;100.00;101652.88;4884383;29;20053;-80
2023/12/19 08:59:01;;;;;;;8.45;6.15;;;;;;;7.50;100.00;101648.50;4856075;29;20048;-80
2023/12/19 09:01:29;;;;;;;8.70;6.32;;;;;;;7.50;100.00;101637.13;4792770;29;20133;-80
2023/12/19 09:03:56;;;;;;;12.02;7.18;;;;;;;7.51;100.00;101623.19;4855446;29;20048;-79
2023/12/19 09:06:23;;;;;;;10.25;6.53;;;;;;;7.51;100.00;101624.06;4859300;29;20882;-80
2023/12/19 09:08:51;;;;;;;8.85;6.53;;;;;;;7.53;100.00;101626.75;4853252;29;20968;-79
2023/12/19 09:11:18;;;;;;;9.93;7.10;;;;;;;7.54;100.00;101639.91;4861537;29;20060;-79
2023/12/19 09:13:46;;;;;;;10.18;6.93;;;;;;;7.55;100.00;101640.78;4857033;29;20053;-80
2023/12/19 09:16:14;;;;;;;9.65;6.90;;;;;;;7.56;100.00;101630.34;4832666;29;20515;-80
2023/12/19 09:18:42;;;;;;;8.63;7.10;;;;;;;7.57;100.00;101629.47;4847763;29;20485;-79
2023/12/19 09:21:11;;;;;;;9.98;6.75;;;;;;;7.58;100.00;101635.59;4854296;29;20060;-79
2023/12/19 09:23:39;;;;;;;9.07;7.13;;;;;;;7.59;100.00;101642.66;4841320;29;20044;-78
2023/12/19 09:26:08;;;;;;;10.30;7.72;;;;;;;7.59;100.00;101637.41;4861817;29;20063;-79
2023/12/19 09:28:36;;;;;;;9.57;7.03;;;;;;;7.60;100.00;101634.81;4855456;29;20125;-78
2023/12/19 09:31:07;;;;;;;10.25;7.15;;;;;;;7.64;100.00;101642.75;4804204;29;20061;-80
2023/12/19 09:33:38;;;;;;;10.80;7.50;;;;;;;7.64;100.00;101637.50;4832419;29;20049;-78
2023/12/19 09:36:07;;;;;;;;;;;;;;;7.64;100.00;101638.44;4857996;29;20057;-79
2023/12/19 09:38:34;;;;;;;14.10;8.00;;;;;;;7.66;100.00;101626.25;4859163;29;19928;-78
2023/12/19 09:41:03;;;;;;;12.95;8.63;;;;;;;7.68;100.00;101623.66;4872803;29;20048;-79
2023/12/19 09:43:33;;;;;;;14.25;9.20;;;;;;;7.69;100.00;101630.66;4863031;29;20044;-79
2023/12/19 09:46:04;;;;;;;;;;;;;;;7.69;100.00;101613.19;4859207;29;20057;-79
2023/12/19 09:48:33;;;;;;;16.10;8.63;;;;;;;7.70;100.00;101612.34;4824244;29;19931;-79
2023/12/19 09:51:05;;;;;;;16.77;9.65;;;;;;;7.72;100.00;101618.53;4835896;29;20061;-79
2023/12/19 09:53:37;;;;;;;15.68;9.93;;;;;;;7.74;100.00;101605.47;4856103;29;20048;-79
2023/12/19 09:56:09;;;;;;;16.33;10.23;;;;;;;7.76;100.00;101603.75;4873233;29;20060;-79
2023/12/19 09:58:38;;;;;;;16.88;10.35;;;;;;;7.78;100.00;101610.81;4839067;29;20056;-81
2023/12/19 10:01:08;;;;;;;14.60;9.85;;;;;;;7.81;100.00;101599.53;4847677;29;20053;-80
2023/12/19 10:03:35;;;;;;;19.20;10.73;;;;;;;7.82;100.00;101582.94;4819133;29;20075;-80
2023/12/19 10:06:03;;;;;;;18.13;10.77;;;;;;;7.84;100.00;101581.22;4853771;29;20055;-80
2023/12/19 10:08:33;;;;;;;16.42;10.40;;;;;;;7.87;100.00;101576.06;4842908;29;20057;-79
2023/12/19 10:11:00;;;;;;;18.17;10.82;;;;;;;7.89;100.00;101590.13;4863714;29;20064;-80
2023/12/19 10:13:36;;;;;;;19.38;10.98;;;;;;;7.91;100.00;101587.53;4857774;29;20495;-79
2023/12/19 10:16:08;;;;;;;15.55;10.13;;;;;;;7.92;100.00;101579.72;4833746;29;20065;-79
2023/12/19 10:18:56;;;;;;;18.23;11.25;;;;;;;7.94;100.00;101584.97;4817780;29;20083;-80
2023/12/19 10:21:28;;;;;;;16.75;9.93;;;;;;;7.95;100.00;101576.25;4855156;29;20057;-79
2023/12/19 10:24:07;;;;;;;15.05;9.90;;;;;;;7.98;100.00;101574.59;4847611;29;20087;-79
2023/12/19 10:26:36;;;;;;;15.55;9.77;;;;;;;8.01;100.00;101576.41;4863278;29;20048;-80
2023/12/19 10:29:04;;;;;;;17.10;10.98;;;;;;;8.04;100.00;101568.63;4872415;29;20064;-80
2023/12/19 10:31:33;;;;;;;18.65;10.93;;;;;;;8.07;100.00;101567.81;4861026;29;20061;-79
2023/12/19 10:34:04;;;;;;;19.23;11.23;;;;;;;8.08;100.00;101557.34;4798126;29;20053;-80
2023/12/19 10:36:32;;;;;;;15.90;10.85;;;;;;;8.11;100.00;101567.03;4842787;29;20060;-80
2023/12/19 10:39:03;;;;;;;14.35;9.48;;;;;;;8.12;100.00;101563.56;4862375;29;20053;-80
2023/12/19 10:41:32;;;;;;;15.35;9.93;;;;;;;8.13;100.00;101561.00;4874236;29;20057;-80
2023/12/19 10:44:01;;;;;;;12.02;8.70;;;;;;;8.14;100.00;101562.75;4871082;29;20419;-80
2023/12/19 10:46:32;;;;;;;15.25;10.18;;;;;;;8.15;100.00;101561.91;4854319;29;20293;-78
2023/12/19 10:49:01;;;;;;;15.43;9.40;;;;;;;8.16;100.00;101550.53;4798486;29;20053;-81
2023/12/19 10:51:34;;;;;;;14.77;9.15;;;;;;;8.17;100.00;101544.44;4843709;29;20059;-81
2023/12/19 10:54:09;;;;;;;12.90;8.63;;;;;;;8.19;100.00;101537.50;4853983;29;20041;-79
2023/12/19 10:57:18;;;;;;;15.32;9.10;;;;;;;8.20;100.00;101534.03;4861829;29;20048;-80
2023/12/19 11:00:09;;;;;;;13.25;8.90;;;;;;;8.22;100.00;101523.53;4838382;29;20061;-79
2023/12/19 11:02:56;;;;;;;13.60;9.13;;;;;;;8.23;100.00;101511.31;4831756;29;20538;-80
2023/12/19 11:05:39;;;;;;;14.98;8.82;;;;;;;8.25;100.00;101512.25;4822950;29;20041;-79
2023/12/19 11:08:17;;;;;;;15.98;9.43;;;;;;;8.25;100.00;101500.00;4851698;29;20417;-79
2023/12/19 11:11:02;;;;;;;16.33;9.00;;;;;;;8.27;100.00;101498.28;4842169;29;20064;-79
2023/12/19 11:13:32;;;;;;;12.85;8.75;;;;;;;8.30;100.00;101484.34;4885214;29;20059;-79
2023/12/19 11:16:33;;;;;;;15.80;9.45;;;;;;;8.32;100.00;101490.53;4865949;29;20052;-81
2023/12/19 11:19:15;;;;;;;13.32;8.73;;;;;;;8.34;100.00;101489.72;4831965;29;20440;-80
2023/12/19 11:22:09;;;;;;;16.00;9.25;;;;;;;8.36;100.00;101489.75;4858197;29;20052;-80